sensor_id;sensor_type;location;lat;lon;timestamp;P1;durP1;ratioP1;P2;durP2;ratioP2
64875;SDS011;51369;49.862;9.908;2023-12-29T00:01:31;4.10;;;2.72;;
64875;SDS011;51369;49.862;9.908;2023-12-29T00:03:56;3.78;;;2.65;;
64875;SDS011;51369;49.862;9.908;2023-12-29T00:06:21;5.78;;;3.20;;
64875;SDS011;51369;49.862;9.908;2023-12-29T00:08:47;6.78;;;2.80;;
64875;SDS011;51369;49.862;9.908;2023-12-29T00:11:16;4.85;;;3.15;;
64875;SDS011;51369;49.862;9.908;2023-12-29T00:13:45;5.68;;;3.30;;
64875;SDS011;51369;49.862;9.908;2023-12-29T00:16:10;6.25;;;3.65;;
64875;SDS011;51369;49.862;9.908;2023-12-29T00:18:39;5.93;;;3.65;;
64875;SDS011;51369;49.862;9.908;2023-12-29T00:21:05;5.80;;;3.65;;
64875;SDS011;51369;49.862;9.908;2023-12-29T00:23:30;5.03;;;3.63;;
64875;SDS011;51369;49.862;9.908;2023-12-29T00:25:56;6.00;;;3.15;;
64875;SDS011;51369;49.862;9.908;2023-12-29T00:28:22;4.07;;;3.35;;
64875;SDS011;51369;49.862;9.908;2023-12-29T00:30:47;5.13;;;3.70;;
64875;SDS011;51369;49.862;9.908;2023-12-29T00:33:13;5.32;;;3.35;;
64875;SDS011;51369;49.862;9.908;2023-12-29T00:35:38;5.05;;;3.60;;
64875;SDS011;51369;49.862;9.908;2023-12-29T00:38:06;6.25;;;3.33;;
64875;SDS011;51369;49.862;9.908;2023-12-29T00:40:32;4.57;;;3.00;;
64875;SDS011;51369;49.862;9.908;2023-12-29T00:43:02;5.22;;;3.35;;
64875;SDS011;51369;49.862;9.908;2023-12-29T00:45:27;4.70;;;3.83;;
64875;SDS011;51369;49.862;9.908;2023-12-29T00:47:58;5.25;;;3.40;;
64875;SDS011;51369;49.862;9.908;2023-12-29T00:50:24;6.10;;;3.88;;
64875;SDS011;51369;49.862;9.908;2023-12-29T00:52:49;4.95;;;3.70;;
64875;SDS011;51369;49.862;9.908;2023-12-29T00:55:15;3.88;;;3.08;;
64875;SDS011;51369;49.862;9.908;2023-12-29T00:57:40;5.38;;;3.17;;
64875;SDS011;51369;49.862;9.908;2023-12-29T01:00:07;5.05;;;3.45;;
64875;SDS011;51369;49.862;9.908;2023-12-29T01:02:33;4.85;;;3.83;;
64875;SDS011;51369;49.862;9.908;2023-12-29T01:04:58;7.25;;;3.05;;
64875;SDS011;51369;49.862;9.908;2023-12-29T01:07:24;3.85;;;3.00;;
64875;SDS011;51369;49.862;9.908;2023-12-29T01:09:49;8.18;;;3.50;;
64875;SDS011;51369;49.862;9.908;2023-12-29T01:12:15;4.00;;;3.60;;
64875;SDS011;51369;49.862;9.908;2023-12-29T01:14:40;5.07;;;3.40;;
64875;SDS011;51369;49.862;9.908;2023-12-29T01:17:05;4.68;;;3.33;;
64875;SDS011;51369;49.862;9.908;2023-12-29T01:19:31;5.10;;;3.25;;
64875;SDS011;51369;49.862;9.908;2023-12-29T01:21:56;5.00;;;3.35;;
64875;SDS011;51369;49.862;9.908;2023-12-29T01:24:21;4.15;;;3.40;;
64875;SDS011;51369;49.862;9.908;2023-12-29T01:26:47;5.25;;;3.67;;
64875;SDS011;51369;49.862;9.908;2023-12-29T01:29:12;5.68;;;3.88;;
64875;SDS011;51369;49.862;9.908;2023-12-29T01:31:37;10.07;;;3.72;;
64875;SDS011;51369;49.862;9.908;2023-12-29T01:34:03;4.50;;;3.45;;
64875;SDS011;51369;49.862;9.908;2023-12-29T01:36:28;6.30;;;3.75;;
64875;SDS011;51369;49.862;9.908;2023-12-29T01:38:54;4.30;;;3.55;;
64875;SDS011;51369;49.862;9.908;2023-12-29T01:41:20;7.38;;;3.08;;
64875;SDS011;51369;49.862;9.908;2023-12-29T01:46:31;3.95;;;3.28;;
64875;SDS011;51369;49.862;9.908;2023-12-29T01:48:59;5.47;;;3.35;;
64875;SDS011;51369;49.862;9.908;2023-12-29T01:51:26;5.03;;;4.00;;
64875;SDS011;51369;49.862;9.908;2023-12-29T01:53:52;3.83;;;3.33;;
64875;SDS011;51369;49.862;9.908;2023-12-29T01:56:20;5.53;;;3.85;;
64875;SDS011;51369;49.862;9.908;2023-12-29T01:58:48;3.45;;;3.00;;
64875;SDS011;51369;49.862;9.908;2023-12-29T02:01:14;7.22;;;3.42;;
64875;SDS011;51369;49.862;9.908;2023-12-29T02:03:43;5.35;;;2.97;;
64875;SDS011;51369;49.862;9.908;2023-12-29T02:06:09;4.53;;;3.35;;
64875;SDS011;51369;49.862;9.908;2023-12-29T02:08:36;5.53;;;3.45;;
64875;SDS011;51369;49.862;9.908;2023-12-29T02:11:02;4.75;;;3.40;;
64875;SDS011;51369;49.862;9.908;2023-12-29T02:13:28;6.05;;;2.90;;
64875;SDS011;51369;49.862;9.908;2023-12-29T02:15:54;3.75;;;3.13;;
64875;SDS011;51369;49.862;9.908;2023-12-29T02:18:23;4.55;;;3.22;;
64875;SDS011;51369;49.862;9.908;2023-12-29T02:20:51;4.63;;;3.33;;
64875;SDS011;51369;49.862;9.908;2023-12-29T02:23:17;4.47;;;3.08;;
64875;SDS011;51369;49.862;9.908;2023-12-29T02:25:42;4.28;;;3.35;;
64875;SDS011;51369;49.862;9.908;2023-12-29T02:31:55;3.83;;;2.95;;
64875;SDS011;51369;49.862;9.908;2023-12-29T02:34:24;3.85;;;3.25;;
64875;SDS011;51369;49.862;9.908;2023-12-29T02:36:50;7.38;;;3.13;;
64875;SDS011;51369;49.862;9.908;2023-12-29T02:39:16;12.95;;;4.15;;
64875;SDS011;51369;49.862;9.908;2023-12-29T02:41:43;4.97;;;3.63;;
64875;SDS011;51369;49.862;9.908;2023-12-29T02:44:09;5.30;;;3.70;;
64875;SDS011;51369;49.862;9.908;2023-12-29T02:46:34;5.32;;;3.88;;
64875;SDS011;51369;49.862;9.908;2023-12-29T02:49:00;5.07;;;3.30;;
64875;SDS011;51369;49.862;9.908;2023-12-29T02:51:25;4.00;;;3.35;;
64875;SDS011;51369;49.862;9.908;2023-12-29T02:53:50;3.85;;;3.42;;
64875;SDS011;51369;49.862;9.908;2023-12-29T02:56:16;6.93;;;3.92;;
64875;SDS011;51369;49.862;9.908;2023-12-29T02:58:41;6.13;;;3.55;;
64875;SDS011;51369;49.862;9.908;2023-12-29T03:01:07;4.75;;;3.53;;
64875;SDS011;51369;49.862;9.908;2023-12-29T03:03:33;5.90;;;3.83;;
64875;SDS011;51369;49.862;9.908;2023-12-29T03:05:59;4.53;;;3.40;;
64875;SDS011;51369;49.862;9.908;2023-12-29T03:08:24;4.78;;;3.72;;
64875;SDS011;51369;49.862;9.908;2023-12-29T03:10:50;5.88;;;3.88;;
64875;SDS011;51369;49.862;9.908;2023-12-29T03:13:15;6.68;;;3.50;;
64875;SDS011;51369;49.862;9.908;2023-12-29T03:15:40;9.07;;;4.10;;
64875;SDS011;51369;49.862;9.908;2023-12-29T03:18:06;5.63;;;3.83;;
64875;SDS011;51369;49.862;9.908;2023-12-29T03:20:31;5.45;;;4.13;;
64875;SDS011;51369;49.862;9.908;2023-12-29T03:22:56;14.05;;;4.13;;
64875;SDS011;51369;49.862;9.908;2023-12-29T03:25:22;9.25;;;3.92;;
64875;SDS011;51369;49.862;9.908;2023-12-29T03:27:49;5.75;;;4.30;;
64875;SDS011;51369;49.862;9.908;2023-12-29T03:30:14;5.72;;;4.28;;
64875;SDS011;51369;49.862;9.908;2023-12-29T03:32:42;5.55;;;4.18;;
64875;SDS011;51369;49.862;9.908;2023-12-29T03:35:07;8.38;;;4.45;;
64875;SDS011;51369;49.862;9.908;2023-12-29T03:37:33;6.00;;;4.35;;
64875;SDS011;51369;49.862;9.908;2023-12-29T03:39:58;7.32;;;4.45;;
64875;SDS011;51369;49.862;9.908;2023-12-29T03:42:23;11.65;;;4.78;;
64875;SDS011;51369;49.862;9.908;2023-12-29T03:44:49;6.68;;;4.45;;
64875;SDS011;51369;49.862;9.908;2023-12-29T03:47:14;7.38;;;4.38;;
64875;SDS011;51369;49.862;9.908;2023-12-29T03:49:40;6.15;;;4.28;;
64875;SDS011;51369;49.862;9.908;2023-12-29T03:52:05;6.75;;;4.05;;
64875;SDS011;51369;49.862;9.908;2023-12-29T03:54:30;5.80;;;4.35;;
64875;SDS011;51369;49.862;9.908;2023-12-29T03:56:56;6.72;;;3.80;;
64875;SDS011;51369;49.862;9.908;2023-12-29T03:59:21;7.85;;;3.90;;
64875;SDS011;51369;49.862;9.908;2023-12-29T04:01:46;6.00;;;4.57;;
64875;SDS011;51369;49.862;9.908;2023-12-29T04:04:12;7.25;;;4.18;;
64875;SDS011;51369;49.862;9.908;2023-12-29T04:06:37;7.60;;;4.40;;
64875;SDS011;51369;49.862;9.908;2023-12-29T04:09:03;6.32;;;3.65;;
64875;SDS011;51369;49.862;9.908;2023-12-29T04:11:28;5.80;;;3.75;;
64875;SDS011;51369;49.862;9.908;2023-12-29T04:13:54;5.05;;;4.00;;
64875;SDS011;51369;49.862;9.908;2023-12-29T04:16:19;6.78;;;3.90;;
64875;SDS011;51369;49.862;9.908;2023-12-29T04:18:44;5.18;;;3.70;;
64875;SDS011;51369;49.862;9.908;2023-12-29T04:21:14;6.72;;;3.03;;
64875;SDS011;51369;49.862;9.908;2023-12-29T04:23:39;5.32;;;3.45;;
64875;SDS011;51369;49.862;9.908;2023-12-29T04:26:07;5.75;;;3.40;;
64875;SDS011;51369;49.862;9.908;2023-12-29T04:28:32;5.15;;;3.42;;
64875;SDS011;51369;49.862;9.908;2023-12-29T04:30:58;4.10;;;2.88;;
64875;SDS011;51369;49.862;9.908;2023-12-29T04:33:24;4.45;;;3.45;;
64875;SDS011;51369;49.862;9.908;2023-12-29T04:35:49;6.00;;;3.03;;
64875;SDS011;51369;49.862;9.908;2023-12-29T04:38:15;4.15;;;3.05;;
64875;SDS011;51369;49.862;9.908;2023-12-29T04:40:42;4.13;;;2.72;;
64875;SDS011;51369;49.862;9.908;2023-12-29T04:43:07;8.27;;;3.05;;
64875;SDS011;51369;49.862;9.908;2023-12-29T04:45:33;5.03;;;3.05;;
64875;SDS011;51369;49.862;9.908;2023-12-29T04:47:58;3.38;;;2.90;;
64875;SDS011;51369;49.862;9.908;2023-12-29T04:50:23;3.00;;;2.42;;
64875;SDS011;51369;49.862;9.908;2023-12-29T04:52:49;4.45;;;2.60;;
64875;SDS011;51369;49.862;9.908;2023-12-29T04:55:14;3.53;;;2.55;;
64875;SDS011;51369;49.862;9.908;2023-12-29T04:57:40;5.15;;;2.67;;
64875;SDS011;51369;49.862;9.908;2023-12-29T05:00:05;5.63;;;2.72;;
64875;SDS011;51369;49.862;9.908;2023-12-29T05:02:31;3.30;;;2.50;;
64875;SDS011;51369;49.862;9.908;2023-12-29T05:04:56;3.55;;;2.58;;
64875;SDS011;51369;49.862;9.908;2023-12-29T05:07:23;3.92;;;2.40;;
64875;SDS011;51369;49.862;9.908;2023-12-29T05:09:48;5.60;;;2.67;;
64875;SDS011;51369;49.862;9.908;2023-12-29T05:12:14;4.45;;;2.53;;
64875;SDS011;51369;49.862;9.908;2023-12-29T05:14:39;4.15;;;3.20;;
64875;SDS011;51369;49.862;9.908;2023-12-29T05:17:05;4.47;;;2.70;;
64875;SDS011;51369;49.862;9.908;2023-12-29T05:19:30;6.93;;;2.58;;
64875;SDS011;51369;49.862;9.908;2023-12-29T05:21:56;3.10;;;2.80;;
64875;SDS011;51369;49.862;9.908;2023-12-29T05:24:21;4.20;;;2.63;;
64875;SDS011;51369;49.862;9.908;2023-12-29T05:26:46;3.90;;;2.47;;
64875;SDS011;51369;49.862;9.908;2023-12-29T05:29:12;4.95;;;2.60;;
64875;SDS011;51369;49.862;9.908;2023-12-29T05:31:37;5.07;;;2.70;;
64875;SDS011;51369;49.862;9.908;2023-12-29T05:34:03;4.72;;;2.63;;
64875;SDS011;51369;49.862;9.908;2023-12-29T05:36:28;3.90;;;2.90;;
64875;SDS011;51369;49.862;9.908;2023-12-29T05:38:55;2.65;;;2.35;;
64875;SDS011;51369;49.862;9.908;2023-12-29T05:41:21;3.55;;;2.42;;
64875;SDS011;51369;49.862;9.908;2023-12-29T05:43:47;3.80;;;2.88;;
64875;SDS011;51369;49.862;9.908;2023-12-29T05:46:12;2.60;;;2.40;;
64875;SDS011;51369;49.862;9.908;2023-12-29T05:48:38;3.85;;;2.63;;
64875;SDS011;51369;49.862;9.908;2023-12-29T05:51:10;11.88;;;2.97;;
64875;SDS011;51369;49.862;9.908;2023-12-29T05:53:38;5.70;;;3.30;;
64875;SDS011;51369;49.862;9.908;2023-12-29T05:56:04;4.07;;;2.50;;
64875;SDS011;51369;49.862;9.908;2023-12-29T05:58:30;3.75;;;2.33;;
64875;SDS011;51369;49.862;9.908;2023-12-29T06:00:55;7.00;;;2.80;;
64875;SDS011;51369;49.862;9.908;2023-12-29T06:03:21;4.53;;;2.70;;
64875;SDS011;51369;49.862;9.908;2023-12-29T06:05:47;5.72;;;4.45;;
64875;SDS011;51369;49.862;9.908;2023-12-29T06:08:13;5.60;;;2.58;;
64875;SDS011;51369;49.862;9.908;2023-12-29T06:10:39;4.55;;;2.88;;
64875;SDS011;51369;49.862;9.908;2023-12-29T06:13:04;3.78;;;2.75;;
64875;SDS011;51369;49.862;9.908;2023-12-29T06:15:29;3.05;;;2.67;;
64875;SDS011;51369;49.862;9.908;2023-12-29T06:17:55;3.58;;;2.70;;
64875;SDS011;51369;49.862;9.908;2023-12-29T06:20:20;5.00;;;3.15;;
64875;SDS011;51369;49.862;9.908;2023-12-29T06:22:46;4.88;;;2.90;;
64875;SDS011;51369;49.862;9.908;2023-12-29T06:25:11;5.63;;;3.13;;
64875;SDS011;51369;49.862;9.908;2023-12-29T06:27:37;4.55;;;2.60;;
64875;SDS011;51369;49.862;9.908;2023-12-29T06:30:09;4.78;;;3.22;;
64875;SDS011;51369;49.862;9.908;2023-12-29T06:32:36;4.82;;;3.28;;
64875;SDS011;51369;49.862;9.908;2023-12-29T06:35:01;6.38;;;3.35;;
64875;SDS011;51369;49.862;9.908;2023-12-29T06:37:28;4.65;;;3.10;;
64875;SDS011;51369;49.862;9.908;2023-12-29T06:39:53;4.22;;;3.17;;
64875;SDS011;51369;49.862;9.908;2023-12-29T06:42:19;4.82;;;3.20;;
64875;SDS011;51369;49.862;9.908;2023-12-29T06:44:44;4.07;;;3.20;;
64875;SDS011;51369;49.862;9.908;2023-12-29T06:47:11;8.55;;;2.97;;
64875;SDS011;51369;49.862;9.908;2023-12-29T06:49:36;5.78;;;2.78;;
64875;SDS011;51369;49.862;9.908;2023-12-29T06:52:02;6.03;;;3.30;;
64875;SDS011;51369;49.862;9.908;2023-12-29T06:54:27;4.55;;;2.60;;
64875;SDS011;51369;49.862;9.908;2023-12-29T06:56:53;5.22;;;2.67;;
64875;SDS011;51369;49.862;9.908;2023-12-29T06:59:18;6.22;;;2.90;;
64875;SDS011;51369;49.862;9.908;2023-12-29T07:01:45;4.55;;;3.10;;
64875;SDS011;51369;49.862;9.908;2023-12-29T07:04:11;5.05;;;3.00;;
64875;SDS011;51369;49.862;9.908;2023-12-29T07:06:37;4.15;;;2.97;;
64875;SDS011;51369;49.862;9.908;2023-12-29T07:09:03;3.95;;;3.03;;
64875;SDS011;51369;49.862;9.908;2023-12-29T07:11:28;4.45;;;2.70;;
64875;SDS011;51369;49.862;9.908;2023-12-29T07:13:54;7.95;;;3.15;;
64875;SDS011;51369;49.862;9.908;2023-12-29T07:16:20;3.95;;;2.97;;
64875;SDS011;51369;49.862;9.908;2023-12-29T07:18:45;4.03;;;2.90;;
64875;SDS011;51369;49.862;9.908;2023-12-29T07:21:11;2.90;;;2.55;;
64875;SDS011;51369;49.862;9.908;2023-12-29T07:23:37;4.45;;;2.88;;
64875;SDS011;51369;49.862;9.908;2023-12-29T07:26:03;6.22;;;2.88;;
64875;SDS011;51369;49.862;9.908;2023-12-29T07:28:29;5.22;;;2.90;;
64875;SDS011;51369;49.862;9.908;2023-12-29T07:30:54;4.07;;;2.97;;
64875;SDS011;51369;49.862;9.908;2023-12-29T07:33:19;4.15;;;2.83;;
64875;SDS011;51369;49.862;9.908;2023-12-29T07:35:45;4.43;;;2.78;;
64875;SDS011;51369;49.862;9.908;2023-12-29T07:38:10;4.40;;;2.80;;
64875;SDS011;51369;49.862;9.908;2023-12-29T07:40:35;4.32;;;2.90;;
64875;SDS011;51369;49.862;9.908;2023-12-29T07:43:01;4.20;;;3.00;;
64875;SDS011;51369;49.862;9.908;2023-12-29T07:45:26;4.05;;;3.10;;
64875;SDS011;51369;49.862;9.908;2023-12-29T07:47:51;5.32;;;2.65;;
64875;SDS011;51369;49.862;9.908;2023-12-29T07:50:17;3.88;;;2.80;;
64875;SDS011;51369;49.862;9.908;2023-12-29T07:52:42;3.30;;;2.70;;
64875;SDS011;51369;49.862;9.908;2023-12-29T07:55:09;4.80;;;2.38;;
64875;SDS011;51369;49.862;9.908;2023-12-29T07:57:34;4.82;;;2.63;;
64875;SDS011;51369;49.862;9.908;2023-12-29T08:00:00;4.50;;;2.83;;
64875;SDS011;51369;49.862;9.908;2023-12-29T08:02:26;5.43;;;3.17;;
64875;SDS011;51369;49.862;9.908;2023-12-29T08:04:52;3.10;;;2.50;;
64875;SDS011;51369;49.862;9.908;2023-12-29T08:07:19;3.78;;;2.70;;
64875;SDS011;51369;49.862;9.908;2023-12-29T08:09:45;3.42;;;2.47;;
64875;SDS011;51369;49.862;9.908;2023-12-29T08:12:10;4.93;;;2.97;;
64875;SDS011;51369;49.862;9.908;2023-12-29T08:14:35;4.47;;;2.30;;
64875;SDS011;51369;49.862;9.908;2023-12-29T08:17:01;2.72;;;2.38;;
64875;SDS011;51369;49.862;9.908;2023-12-29T08:19:26;3.33;;;2.35;;
64875;SDS011;51369;49.862;9.908;2023-12-29T08:21:52;5.25;;;2.80;;
64875;SDS011;51369;49.862;9.908;2023-12-29T08:24:18;2.67;;;2.40;;
64875;SDS011;51369;49.862;9.908;2023-12-29T08:26:45;4.10;;;2.40;;
64875;SDS011;51369;49.862;9.908;2023-12-29T08:29:12;2.55;;;2.28;;
64875;SDS011;51369;49.862;9.908;2023-12-29T08:31:41;4.15;;;2.17;;
64875;SDS011;51369;49.862;9.908;2023-12-29T08:34:07;2.88;;;2.42;;
64875;SDS011;51369;49.862;9.908;2023-12-29T08:36:32;4.00;;;2.30;;
64875;SDS011;51369;49.862;9.908;2023-12-29T08:38:58;5.38;;;2.63;;
64875;SDS011;51369;49.862;9.908;2023-12-29T08:41:23;2.60;;;1.98;;
64875;SDS011;51369;49.862;9.908;2023-12-29T08:43:49;5.78;;;2.17;;
64875;SDS011;51369;49.862;9.908;2023-12-29T08:46:14;4.10;;;2.30;;
64875;SDS011;51369;49.862;9.908;2023-12-29T08:48:40;3.35;;;2.25;;
64875;SDS011;51369;49.862;9.908;2023-12-29T08:51:05;2.85;;;1.83;;
64875;SDS011;51369;49.862;9.908;2023-12-29T08:53:32;4.38;;;2.22;;
64875;SDS011;51369;49.862;9.908;2023-12-29T08:56:00;3.72;;;2.15;;
64875;SDS011;51369;49.862;9.908;2023-12-29T08:58:26;4.00;;;2.00;;
64875;SDS011;51369;49.862;9.908;2023-12-29T09:00:52;2.15;;;1.88;;
64875;SDS011;51369;49.862;9.908;2023-12-29T09:03:17;3.35;;;2.00;;
64875;SDS011;51369;49.862;9.908;2023-12-29T09:05:42;3.15;;;2.13;;
64875;SDS011;51369;49.862;9.908;2023-12-29T09:08:08;3.85;;;2.00;;
64875;SDS011;51369;49.862;9.908;2023-12-29T09:10:33;2.60;;;1.70;;
64875;SDS011;51369;49.862;9.908;2023-12-29T09:12:58;2.08;;;1.88;;
64875;SDS011;51369;49.862;9.908;2023-12-29T09:15:24;4.78;;;1.50;;
64875;SDS011;51369;49.862;9.908;2023-12-29T09:17:50;6.95;;;2.65;;
64875;SDS011;51369;49.862;9.908;2023-12-29T09:20:15;2.78;;;1.90;;
64875;SDS011;51369;49.862;9.908;2023-12-29T09:22:41;3.88;;;1.90;;
64875;SDS011;51369;49.862;9.908;2023-12-29T09:25:07;2.95;;;1.80;;
64875;SDS011;51369;49.862;9.908;2023-12-29T09:27:32;2.10;;;1.90;;
64875;SDS011;51369;49.862;9.908;2023-12-29T09:29:58;2.03;;;1.65;;
64875;SDS011;51369;49.862;9.908;2023-12-29T09:32:24;2.80;;;1.70;;
64875;SDS011;51369;49.862;9.908;2023-12-29T09:34:49;6.78;;;2.08;;
64875;SDS011;51369;49.862;9.908;2023-12-29T09:37:14;2.30;;;1.60;;
64875;SDS011;51369;49.862;9.908;2023-12-29T09:39:40;1.95;;;1.60;;
64875;SDS011;51369;49.862;9.908;2023-12-29T09:42:06;2.60;;;1.75;;
64875;SDS011;51369;49.862;9.908;2023-12-29T09:44:34;3.75;;;1.85;;
64875;SDS011;51369;49.862;9.908;2023-12-29T09:47:01;3.17;;;1.65;;
64875;SDS011;51369;49.862;9.908;2023-12-29T09:49:34;2.15;;;1.55;;
64875;SDS011;51369;49.862;9.908;2023-12-29T09:52:03;3.53;;;1.67;;
64875;SDS011;51369;49.862;9.908;2023-12-29T09:54:31;2.78;;;1.60;;
64875;SDS011;51369;49.862;9.908;2023-12-29T09:56:57;2.03;;;1.50;;
64875;SDS011;51369;49.862;9.908;2023-12-29T09:59:24;1.55;;;1.42;;
64875;SDS011;51369;49.862;9.908;2023-12-29T10:01:51;4.90;;;1.92;;
64875;SDS011;51369;49.862;9.908;2023-12-29T10:04:19;5.85;;;1.55;;
64875;SDS011;51369;49.862;9.908;2023-12-29T10:06:44;1.30;;;1.20;;
64875;SDS011;51369;49.862;9.908;2023-12-29T10:09:13;4.07;;;1.75;;
64875;SDS011;51369;49.862;9.908;2023-12-29T10:11:42;3.15;;;1.40;;
64875;SDS011;51369;49.862;9.908;2023-12-29T10:14:15;4.65;;;1.85;;
64875;SDS011;51369;49.862;9.908;2023-12-29T10:16:47;2.85;;;2.00;;
64875;SDS011;51369;49.862;9.908;2023-12-29T10:22:34;3.45;;;1.70;;
64875;SDS011;51369;49.862;9.908;2023-12-29T10:25:13;2.13;;;1.40;;
64875;SDS011;51369;49.862;9.908;2023-12-29T10:27:39;3.72;;;1.65;;
64875;SDS011;51369;49.862;9.908;2023-12-29T10:30:05;4.40;;;1.75;;
64875;SDS011;51369;49.862;9.908;2023-12-29T10:32:36;2.22;;;1.70;;
64875;SDS011;51369;49.862;9.908;2023-12-29T10:35:07;1.73;;;1.35;;
64875;SDS011;51369;49.862;9.908;2023-12-29T10:37:34;3.38;;;1.45;;
64875;SDS011;51369;49.862;9.908;2023-12-29T10:40:00;2.38;;;1.77;;
64875;SDS011;51369;49.862;9.908;2023-12-29T10:42:26;2.60;;;1.77;;
64875;SDS011;51369;49.862;9.908;2023-12-29T10:45:08;2.15;;;1.77;;
64875;SDS011;51369;49.862;9.908;2023-12-29T10:47:35;3.97;;;1.70;;
64875;SDS011;51369;49.862;9.908;2023-12-29T10:50:01;2.17;;;1.73;;
64875;SDS011;51369;49.862;9.908;2023-12-29T10:52:29;3.28;;;2.03;;
64875;SDS011;51369;49.862;9.908;2023-12-29T10:55:04;3.83;;;1.88;;
64875;SDS011;51369;49.862;9.908;2023-12-29T10:57:30;3.22;;;1.73;;
64875;SDS011;51369;49.862;9.908;2023-12-29T10:59:57;1.73;;;1.63;;
64875;SDS011;51369;49.862;9.908;2023-12-29T11:02:23;4.75;;;2.00;;
64875;SDS011;51369;49.862;9.908;2023-12-29T11:04:48;2.47;;;1.92;;
64875;SDS011;51369;49.862;9.908;2023-12-29T11:07:15;5.05;;;1.60;;
64875;SDS011;51369;49.862;9.908;2023-12-29T11:09:55;2.38;;;1.70;;
64875;SDS011;51369;49.862;9.908;2023-12-29T11:12:25;2.33;;;1.60;;
64875;SDS011;51369;49.862;9.908;2023-12-29T11:14:51;3.35;;;1.92;;
64875;SDS011;51369;49.862;9.908;2023-12-29T11:17:17;2.40;;;1.73;;
64875;SDS011;51369;49.862;9.908;2023-12-29T11:19:45;3.00;;;1.83;;
64875;SDS011;51369;49.862;9.908;2023-12-29T11:22:12;4.07;;;1.83;;
64875;SDS011;51369;49.862;9.908;2023-12-29T11:24:38;2.10;;;1.50;;
64875;SDS011;51369;49.862;9.908;2023-12-29T11:27:04;3.38;;;1.90;;
64875;SDS011;51369;49.862;9.908;2023-12-29T11:29:32;1.88;;;1.63;;
64875;SDS011;51369;49.862;9.908;2023-12-29T11:31:58;3.75;;;1.70;;
64875;SDS011;51369;49.862;9.908;2023-12-29T11:34:31;2.15;;;1.50;;
64875;SDS011;51369;49.862;9.908;2023-12-29T11:37:15;1.48;;;1.38;;
64875;SDS011;51369;49.862;9.908;2023-12-29T11:40:36;4.57;;;1.65;;
64875;SDS011;51369;49.862;9.908;2023-12-29T11:42:59;4.13;;;1.30;;
64875;SDS011;51369;49.862;9.908;2023-12-29T11:45:30;2.45;;;1.20;;
64875;SDS011;51369;49.862;9.908;2023-12-29T11:47:59;6.38;;;1.10;;
64875;SDS011;51369;49.862;9.908;2023-12-29T11:50:34;1.70;;;1.10;;
64875;SDS011;51369;49.862;9.908;2023-12-29T11:53:08;1.10;;;1.00;;
64875;SDS011;51369;49.862;9.908;2023-12-29T11:55:34;2.35;;;1.38;;
64875;SDS011;51369;49.862;9.908;2023-12-29T11:58:04;6.10;;;1.35;;
64875;SDS011;51369;49.862;9.908;2023-12-29T12:00:48;1.88;;;1.00;;
64875;SDS011;51369;49.862;9.908;2023-12-29T12:03:24;1.40;;;1.20;;
64875;SDS011;51369;49.862;9.908;2023-12-29T12:05:51;1.67;;;1.13;;
64875;SDS011;51369;49.862;9.908;2023-12-29T12:08:27;6.00;;;1.35;;
64875;SDS011;51369;49.862;9.908;2023-12-29T12:10:54;3.38;;;1.30;;
64875;SDS011;51369;49.862;9.908;2023-12-29T12:16:46;2.65;;;1.20;;
64875;SDS011;51369;49.862;9.908;2023-12-29T12:19:13;2.65;;;1.00;;
64875;SDS011;51369;49.862;9.908;2023-12-29T12:21:39;3.58;;;1.00;;
64875;SDS011;51369;49.862;9.908;2023-12-29T12:24:05;2.50;;;1.40;;
64875;SDS011;51369;49.862;9.908;2023-12-29T12:26:32;4.85;;;1.85;;
64875;SDS011;51369;49.862;9.908;2023-12-29T12:28:58;4.35;;;1.33;;
64875;SDS011;51369;49.862;9.908;2023-12-29T12:31:24;3.53;;;1.48;;
64875;SDS011;51369;49.862;9.908;2023-12-29T12:33:53;2.97;;;1.27;;
64875;SDS011;51369;49.862;9.908;2023-12-29T12:36:21;2.85;;;1.17;;
64875;SDS011;51369;49.862;9.908;2023-12-29T12:38:56;1.83;;;1.17;;
64875;SDS011;51369;49.862;9.908;2023-12-29T12:41:22;2.90;;;1.20;;
64875;SDS011;51369;49.862;9.908;2023-12-29T12:43:50;2.60;;;1.20;;
64875;SDS011;51369;49.862;9.908;2023-12-29T12:46:18;2.28;;;1.50;;
64875;SDS011;51369;49.862;9.908;2023-12-29T12:48:49;1.67;;;1.40;;
64875;SDS011;51369;49.862;9.908;2023-12-29T12:51:15;3.40;;;1.30;;
64875;SDS011;51369;49.862;9.908;2023-12-29T12:53:44;3.10;;;1.17;;
64875;SDS011;51369;49.862;9.908;2023-12-29T12:56:09;1.73;;;0.98;;
64875;SDS011;51369;49.862;9.908;2023-12-29T12:58:36;3.10;;;1.20;;
64875;SDS011;51369;49.862;9.908;2023-12-29T13:01:02;4.55;;;1.30;;
64875;SDS011;51369;49.862;9.908;2023-12-29T13:03:28;2.03;;;1.05;;
64875;SDS011;51369;49.862;9.908;2023-12-29T13:05:56;2.05;;;1.00;;
64875;SDS011;51369;49.862;9.908;2023-12-29T13:08:23;3.00;;;1.00;;
64875;SDS011;51369;49.862;9.908;2023-12-29T13:10:50;3.65;;;1.42;;
64875;SDS011;51369;49.862;9.908;2023-12-29T13:13:16;1.60;;;1.13;;
64875;SDS011;51369;49.862;9.908;2023-12-29T13:18:12;3.03;;;1.05;;
64875;SDS011;51369;49.862;9.908;2023-12-29T13:20:47;2.47;;;1.30;;
64875;SDS011;51369;49.862;9.908;2023-12-29T13:23:13;2.45;;;1.23;;
64875;SDS011;51369;49.862;9.908;2023-12-29T13:25:39;1.80;;;1.50;;
64875;SDS011;51369;49.862;9.908;2023-12-29T13:28:07;2.63;;;1.60;;
64875;SDS011;51369;49.862;9.908;2023-12-29T13:30:34;2.65;;;1.60;;
64875;SDS011;51369;49.862;9.908;2023-12-29T13:33:02;2.78;;;1.20;;
64875;SDS011;51369;49.862;9.908;2023-12-29T13:35:40;4.25;;;1.70;;
64875;SDS011;51369;49.862;9.908;2023-12-29T13:38:21;1.85;;;1.40;;
64875;SDS011;51369;49.862;9.908;2023-12-29T13:43:47;2.90;;;1.27;;
64875;SDS011;51369;49.862;9.908;2023-12-29T13:46:13;3.00;;;1.35;;
64875;SDS011;51369;49.862;9.908;2023-12-29T13:48:41;1.35;;;1.25;;
64875;SDS011;51369;49.862;9.908;2023-12-29T13:51:08;2.53;;;1.80;;
64875;SDS011;51369;49.862;9.908;2023-12-29T13:53:34;1.90;;;1.50;;
64875;SDS011;51369;49.862;9.908;2023-12-29T13:56:06;3.35;;;1.45;;
64875;SDS011;51369;49.862;9.908;2023-12-29T13:58:33;2.55;;;1.10;;
64875;SDS011;51369;49.862;9.908;2023-12-29T14:00:58;2.75;;;1.35;;
64875;SDS011;51369;49.862;9.908;2023-12-29T14:03:32;1.48;;;1.15;;
64875;SDS011;51369;49.862;9.908;2023-12-29T14:06:10;1.58;;;1.23;;
64875;SDS011;51369;49.862;9.908;2023-12-29T14:08:39;1.45;;;1.35;;
64875;SDS011;51369;49.862;9.908;2023-12-29T14:11:07;5.30;;;1.50;;
64875;SDS011;51369;49.862;9.908;2023-12-29T14:13:34;2.25;;;1.40;;
64875;SDS011;51369;49.862;9.908;2023-12-29T14:16:00;1.92;;;1.10;;
64875;SDS011;51369;49.862;9.908;2023-12-29T14:21:21;1.90;;;1.50;;
64875;SDS011;51369;49.862;9.908;2023-12-29T14:26:36;2.47;;;1.15;;
64875;SDS011;51369;49.862;9.908;2023-12-29T14:29:03;1.38;;;1.27;;
64875;SDS011;51369;49.862;9.908;2023-12-29T14:31:38;1.20;;;1.08;;
64875;SDS011;51369;49.862;9.908;2023-12-29T14:34:08;1.67;;;1.17;;
64875;SDS011;51369;49.862;9.908;2023-12-29T14:36:34;1.00;;;0.90;;
64875;SDS011;51369;49.862;9.908;2023-12-29T14:39:00;2.13;;;1.30;;
64875;SDS011;51369;49.862;9.908;2023-12-29T14:41:26;1.38;;;1.17;;
64875;SDS011;51369;49.862;9.908;2023-12-29T14:43:52;3.10;;;1.10;;
64875;SDS011;51369;49.862;9.908;2023-12-29T14:46:18;1.95;;;1.05;;
64875;SDS011;51369;49.862;9.908;2023-12-29T14:48:43;3.60;;;1.00;;
64875;SDS011;51369;49.862;9.908;2023-12-29T14:51:09;2.45;;;1.23;;
64875;SDS011;51369;49.862;9.908;2023-12-29T14:53:35;3.97;;;1.15;;
64875;SDS011;51369;49.862;9.908;2023-12-29T14:56:00;1.40;;;1.13;;
64875;SDS011;51369;49.862;9.908;2023-12-29T14:58:26;2.28;;;1.30;;
64875;SDS011;51369;49.862;9.908;2023-12-29T15:00:51;1.35;;;1.20;;
64875;SDS011;51369;49.862;9.908;2023-12-29T15:03:16;1.63;;;1.10;;
64875;SDS011;51369;49.862;9.908;2023-12-29T15:05:45;1.70;;;1.42;;
64875;SDS011;51369;49.862;9.908;2023-12-29T15:08:11;1.40;;;1.10;;
64875;SDS011;51369;49.862;9.908;2023-12-29T15:10:37;2.15;;;1.67;;